sensor_id;sensor_type;location;lat;lon;timestamp;P1;durP1;ratioP1;P2;durP2;ratioP2
20531;SDS011;10424;52.102;8.084;2023-02-01T00:01:05;15.97;;;3.00;;
20531;SDS011;10424;52.102;8.084;2023-02-01T00:03:33;16.37;;;3.20;;
20531;SDS011;10424;52.102;8.084;2023-02-01T00:06:02;13.60;;;2.57;;
20531;SDS011;10424;52.102;8.084;2023-02-01T00:08:29;13.07;;;3.07;;
20531;SDS011;10424;52.102;8.084;2023-02-01T00:10:59;16.80;;;3.13;;
20531;SDS011;10424;52.102;8.084;2023-02-01T00:13:30;20.30;;;2.93;;
20531;SDS011;10424;52.102;8.084;2023-02-01T00:16:04;12.47;;;3.43;;
20531;SDS011;10424;52.102;8.084;2023-02-01T00:18:31;17.93;;;3.07;;
20531;SDS011;10424;52.102;8.084;2023-02-01T00:20:59;15.90;;;2.67;;
20531;SDS011;10424;52.102;8.084;2023-02-01T00:23:27;22.37;;;3.37;;
20531;SDS011;10424;52.102;8.084;2023-02-01T00:25:55;16.17;;;3.37;;
20531;SDS011;10424;52.102;8.084;2023-02-01T00:28:22;16.07;;;3.13;;
20531;SDS011;10424;52.102;8.084;2023-02-01T00:30:55;13.83;;;3.27;;
20531;SDS011;10424;52.102;8.084;2023-02-01T00:33:22;19.77;;;3.63;;
20531;SDS011;10424;52.102;8.084;2023-02-01T00:35:50;17.77;;;2.93;;
20531;SDS011;10424;52.102;8.084;2023-02-01T00:38:17;14.53;;;2.70;;
20531;SDS011;10424;52.102;8.084;2023-02-01T00:40:46;16.57;;;3.20;;
20531;SDS011;10424;52.102;8.084;2023-02-01T00:43:13;20.53;;;3.40;;
20531;SDS011;10424;52.102;8.084;2023-02-01T00:45:40;14.33;;;2.53;;
20531;SDS011;10424;52.102;8.084;2023-02-01T00:48:08;14.87;;;2.47;;
20531;SDS011;10424;52.102;8.084;2023-02-01T00:50:35;14.90;;;2.63;;
20531;SDS011;10424;52.102;8.084;2023-02-01T00:53:02;15.10;;;3.10;;
20531;SDS011;10424;52.102;8.084;2023-02-01T00:55:30;17.00;;;3.00;;
20531;SDS011;10424;52.102;8.084;2023-02-01T00:57:58;15.00;;;3.03;;
20531;SDS011;10424;52.102;8.084;2023-02-01T01:00:26;12.83;;;2.90;;
20531;SDS011;10424;52.102;8.084;2023-02-01T01:02:53;13.97;;;2.80;;
20531;SDS011;10424;52.102;8.084;2023-02-01T01:05:21;15.13;;;2.70;;
20531;SDS011;10424;52.102;8.084;2023-02-01T01:07:48;14.67;;;2.60;;
20531;SDS011;10424;52.102;8.084;2023-02-01T01:10:16;11.83;;;2.70;;
20531;SDS011;10424;52.102;8.084;2023-02-01T01:12:43;15.10;;;2.90;;
20531;SDS011;10424;52.102;8.084;2023-02-01T01:15:12;15.63;;;3.10;;
20531;SDS011;10424;52.102;8.084;2023-02-01T01:17:39;14.57;;;3.00;;
20531;SDS011;10424;52.102;8.084;2023-02-01T01:20:07;11.13;;;2.70;;
20531;SDS011;10424;52.102;8.084;2023-02-01T01:22:34;15.20;;;3.10;;
20531;SDS011;10424;52.102;8.084;2023-02-01T01:25:01;15.53;;;2.67;;
20531;SDS011;10424;52.102;8.084;2023-02-01T01:27:29;12.97;;;2.57;;
20531;SDS011;10424;52.102;8.084;2023-02-01T01:29:56;15.77;;;3.70;;
20531;SDS011;10424;52.102;8.084;2023-02-01T01:32:25;12.87;;;2.77;;
20531;SDS011;10424;52.102;8.084;2023-02-01T01:34:52;17.03;;;2.93;;
20531;SDS011;10424;52.102;8.084;2023-02-01T01:37:19;12.43;;;3.03;;
20531;SDS011;10424;52.102;8.084;2023-02-01T01:39:46;14.37;;;2.80;;
20531;SDS011;10424;52.102;8.084;2023-02-01T01:42:14;16.83;;;2.97;;
20531;SDS011;10424;52.102;8.084;2023-02-01T01:44:57;20.20;;;3.13;;
20531;SDS011;10424;52.102;8.084;2023-02-01T01:47:26;15.70;;;2.70;;
20531;SDS011;10424;52.102;8.084;2023-02-01T01:49:56;18.53;;;4.13;;
20531;SDS011;10424;52.102;8.084;2023-02-01T01:52:23;17.80;;;2.30;;
20531;SDS011;10424;52.102;8.084;2023-02-01T01:54:51;15.33;;;2.90;;
20531;SDS011;10424;52.102;8.084;2023-02-01T01:57:20;12.57;;;3.00;;
20531;SDS011;10424;52.102;8.084;2023-02-01T01:59:52;18.30;;;3.10;;
20531;SDS011;10424;52.102;8.084;2023-02-01T02:02:20;14.20;;;2.73;;
20531;SDS011;10424;52.102;8.084;2023-02-01T02:04:49;18.10;;;3.10;;
20531;SDS011;10424;52.102;8.084;2023-02-01T02:07:17;20.00;;;3.00;;
20531;SDS011;10424;52.102;8.084;2023-02-01T02:09:46;23.37;;;3.53;;
20531;SDS011;10424;52.102;8.084;2023-02-01T02:12:13;21.23;;;3.07;;
20531;SDS011;10424;52.102;8.084;2023-02-01T02:14:40;16.90;;;3.10;;
20531;SDS011;10424;52.102;8.084;2023-02-01T02:22:54;13.07;;;3.07;;
20531;SDS011;10424;52.102;8.084;2023-02-01T02:28:29;19.03;;;3.50;;
20531;SDS011;10424;52.102;8.084;2023-02-01T02:31:14;16.57;;;3.43;;
20531;SDS011;10424;52.102;8.084;2023-02-01T02:33:52;12.23;;;2.83;;
20531;SDS011;10424;52.102;8.084;2023-02-01T02:36:28;16.83;;;3.50;;
20531;SDS011;10424;52.102;8.084;2023-02-01T02:39:01;17.60;;;3.00;;
20531;SDS011;10424;52.102;8.084;2023-02-01T02:41:31;16.23;;;3.20;;
20531;SDS011;10424;52.102;8.084;2023-02-01T02:44:19;18.10;;;3.57;;
20531;SDS011;10424;52.102;8.084;2023-02-01T02:47:08;14.27;;;3.03;;
20531;SDS011;10424;52.102;8.084;2023-02-01T02:49:54;10.97;;;2.70;;
20531;SDS011;10424;52.102;8.084;2023-02-01T02:52:42;12.37;;;2.83;;
20531;SDS011;10424;52.102;8.084;2023-02-01T02:55:28;14.47;;;3.40;;
20531;SDS011;10424;52.102;8.084;2023-02-01T02:57:57;13.67;;;2.90;;
20531;SDS011;10424;52.102;8.084;2023-02-01T03:00:43;12.13;;;2.80;;
20531;SDS011;10424;52.102;8.084;2023-02-01T03:03:28;15.57;;;3.30;;
20531;SDS011;10424;52.102;8.084;2023-02-01T03:06:15;15.00;;;3.23;;
20531;SDS011;10424;52.102;8.084;2023-02-01T03:08:43;12.17;;;2.97;;
20531;SDS011;10424;52.102;8.084;2023-02-01T03:11:11;14.73;;;2.97;;
20531;SDS011;10424;52.102;8.084;2023-02-01T03:13:41;10.53;;;2.30;;
20531;SDS011;10424;52.102;8.084;2023-02-01T03:16:10;14.43;;;2.57;;
20531;SDS011;10424;52.102;8.084;2023-02-01T03:18:42;14.37;;;3.17;;
20531;SDS011;10424;52.102;8.084;2023-02-01T03:21:13;17.23;;;2.97;;
20531;SDS011;10424;52.102;8.084;2023-02-01T03:23:44;14.80;;;3.20;;
20531;SDS011;10424;52.102;8.084;2023-02-01T03:26:14;11.43;;;2.90;;
20531;SDS011;10424;52.102;8.084;2023-02-01T03:28:44;11.20;;;2.38;;
20531;SDS011;10424;52.102;8.084;2023-02-01T03:31:13;13.30;;;2.40;;
20531;SDS011;10424;52.102;8.084;2023-02-01T03:33:40;11.13;;;2.50;;
20531;SDS011;10424;52.102;8.084;2023-02-01T03:36:11;12.33;;;2.43;;
20531;SDS011;10424;52.102;8.084;2023-02-01T03:38:40;11.97;;;3.60;;
20531;SDS011;10424;52.102;8.084;2023-02-01T03:41:13;13.33;;;3.23;;
20531;SDS011;10424;52.102;8.084;2023-02-01T03:43:46;14.20;;;2.60;;
20531;SDS011;10424;52.102;8.084;2023-02-01T03:46:16;11.30;;;2.50;;
20531;SDS011;10424;52.102;8.084;2023-02-01T03:48:44;21.13;;;2.47;;
20531;SDS011;10424;52.102;8.084;2023-02-01T03:51:11;19.33;;;3.10;;
20531;SDS011;10424;52.102;8.084;2023-02-01T03:53:39;16.70;;;2.70;;
20531;SDS011;10424;52.102;8.084;2023-02-01T03:56:07;19.90;;;3.20;;
20531;SDS011;10424;52.102;8.084;2023-02-01T03:58:38;17.47;;;2.63;;
20531;SDS011;10424;52.102;8.084;2023-02-01T04:01:05;11.67;;;2.47;;
20531;SDS011;10424;52.102;8.084;2023-02-01T04:03:32;18.30;;;3.20;;
20531;SDS011;10424;52.102;8.084;2023-02-01T04:05:59;11.73;;;2.47;;
20531;SDS011;10424;52.102;8.084;2023-02-01T04:08:27;11.33;;;2.60;;
20531;SDS011;10424;52.102;8.084;2023-02-01T04:10:54;15.60;;;2.63;;
20531;SDS011;10424;52.102;8.084;2023-02-01T04:13:21;12.70;;;2.40;;
20531;SDS011;10424;52.102;8.084;2023-02-01T04:15:50;12.40;;;2.50;;
20531;SDS011;10424;52.102;8.084;2023-02-01T04:18:17;12.10;;;2.90;;
20531;SDS011;10424;52.102;8.084;2023-02-01T04:20:44;16.87;;;3.33;;
20531;SDS011;10424;52.102;8.084;2023-02-01T04:23:12;12.07;;;2.70;;
20531;SDS011;10424;52.102;8.084;2023-02-01T04:25:40;11.47;;;2.67;;
20531;SDS011;10424;52.102;8.084;2023-02-01T04:28:08;12.53;;;2.60;;
20531;SDS011;10424;52.102;8.084;2023-02-01T04:30:35;17.27;;;3.20;;
20531;SDS011;10424;52.102;8.084;2023-02-01T04:33:04;15.35;;;2.80;;
20531;SDS011;10424;52.102;8.084;2023-02-01T04:35:31;18.43;;;2.90;;
20531;SDS011;10424;52.102;8.084;2023-02-01T04:37:59;17.90;;;2.53;;
20531;SDS011;10424;52.102;8.084;2023-02-01T04:40:26;13.77;;;2.60;;
20531;SDS011;10424;52.102;8.084;2023-02-01T04:42:53;12.40;;;2.40;;
20531;SDS011;10424;52.102;8.084;2023-02-01T04:45:20;12.43;;;2.90;;
20531;SDS011;10424;52.102;8.084;2023-02-01T04:47:48;16.17;;;3.97;;
20531;SDS011;10424;52.102;8.084;2023-02-01T04:50:17;16.93;;;2.80;;
20531;SDS011;10424;52.102;8.084;2023-02-01T04:52:45;15.67;;;2.70;;
20531;SDS011;10424;52.102;8.084;2023-02-01T04:55:12;17.50;;;2.90;;
20531;SDS011;10424;52.102;8.084;2023-02-01T04:57:40;15.37;;;2.37;;
20531;SDS011;10424;52.102;8.084;2023-02-01T05:00:08;14.90;;;2.63;;
20531;SDS011;10424;52.102;8.084;2023-02-01T05:02:35;17.10;;;2.40;;
20531;SDS011;10424;52.102;8.084;2023-02-01T05:05:03;14.03;;;3.13;;
20531;SDS011;10424;52.102;8.084;2023-02-01T05:07:31;21.73;;;3.20;;
20531;SDS011;10424;52.102;8.084;2023-02-01T05:09:59;21.10;;;2.97;;
20531;SDS011;10424;52.102;8.084;2023-02-01T05:12:26;11.67;;;2.40;;
20531;SDS011;10424;52.102;8.084;2023-02-01T05:15:11;15.40;;;2.90;;
20531;SDS011;10424;52.102;8.084;2023-02-01T05:17:38;17.33;;;2.90;;
20531;SDS011;10424;52.102;8.084;2023-02-01T05:20:06;16.30;;;3.13;;
20531;SDS011;10424;52.102;8.084;2023-02-01T05:22:34;16.30;;;3.10;;
20531;SDS011;10424;52.102;8.084;2023-02-01T05:25:02;12.93;;;2.57;;
20531;SDS011;10424;52.102;8.084;2023-02-01T05:27:29;15.37;;;2.60;;
20531;SDS011;10424;52.102;8.084;2023-02-01T05:29:57;13.10;;;3.27;;
20531;SDS011;10424;52.102;8.084;2023-02-01T05:32:24;15.03;;;3.43;;
20531;SDS011;10424;52.102;8.084;2023-02-01T05:34:51;14.07;;;2.67;;
20531;SDS011;10424;52.102;8.084;2023-02-01T05:37:18;16.33;;;3.30;;
20531;SDS011;10424;52.102;8.084;2023-02-01T05:39:47;20.33;;;2.70;;
20531;SDS011;10424;52.102;8.084;2023-02-01T05:42:14;12.87;;;2.57;;
20531;SDS011;10424;52.102;8.084;2023-02-01T05:44:42;18.17;;;2.93;;
20531;SDS011;10424;52.102;8.084;2023-02-01T05:47:09;14.00;;;3.37;;
20531;SDS011;10424;52.102;8.084;2023-02-01T05:49:37;9.20;;;2.23;;
20531;SDS011;10424;52.102;8.084;2023-02-01T05:52:04;16.37;;;2.73;;
20531;SDS011;10424;52.102;8.084;2023-02-01T05:54:32;14.60;;;2.60;;
20531;SDS011;10424;52.102;8.084;2023-02-01T05:57:00;19.30;;;2.67;;
20531;SDS011;10424;52.102;8.084;2023-02-01T05:59:27;22.03;;;3.20;;
20531;SDS011;10424;52.102;8.084;2023-02-01T06:01:55;14.85;;;2.63;;
20531;SDS011;10424;52.102;8.084;2023-02-01T06:04:22;14.07;;;3.20;;
20531;SDS011;10424;52.102;8.084;2023-02-01T06:06:49;15.50;;;2.83;;
20531;SDS011;10424;52.102;8.084;2023-02-01T06:09:17;16.98;;;2.50;;
20531;SDS011;10424;52.102;8.084;2023-02-01T06:11:44;10.63;;;2.47;;
20531;SDS011;10424;52.102;8.084;2023-02-01T06:14:13;15.63;;;2.93;;
20531;SDS011;10424;52.102;8.084;2023-02-01T06:16:40;10.63;;;2.67;;
20531;SDS011;10424;52.102;8.084;2023-02-01T06:19:07;14.63;;;3.00;;
20531;SDS011;10424;52.102;8.084;2023-02-01T06:21:35;11.38;;;2.55;;
20531;SDS011;10424;52.102;8.084;2023-02-01T06:24:02;19.65;;;2.80;;
20531;SDS011;10424;52.102;8.084;2023-02-01T06:26:29;14.52;;;3.10;;
20531;SDS011;10424;52.102;8.084;2023-02-01T06:28:57;12.20;;;2.47;;
20531;SDS011;10424;52.102;8.084;2023-02-01T06:31:25;16.23;;;2.93;;
20531;SDS011;10424;52.102;8.084;2023-02-01T06:33:52;18.07;;;2.83;;
20531;SDS011;10424;52.102;8.084;2023-02-01T06:36:20;12.97;;;3.00;;
20531;SDS011;10424;52.102;8.084;2023-02-01T06:38:47;19.40;;;3.07;;
20531;SDS011;10424;52.102;8.084;2023-02-01T06:41:14;10.30;;;2.47;;
20531;SDS011;10424;52.102;8.084;2023-02-01T06:43:42;17.33;;;3.30;;
20531;SDS011;10424;52.102;8.084;2023-02-01T06:46:11;14.13;;;2.77;;
20531;SDS011;10424;52.102;8.084;2023-02-01T06:48:40;12.50;;;2.67;;
20531;SDS011;10424;52.102;8.084;2023-02-01T06:51:16;15.20;;;3.07;;
20531;SDS011;10424;52.102;8.084;2023-02-01T06:53:45;12.70;;;3.33;;
20531;SDS011;10424;52.102;8.084;2023-02-01T06:56:12;11.53;;;2.33;;
20531;SDS011;10424;52.102;8.084;2023-02-01T06:58:39;19.02;;;2.70;;
20531;SDS011;10424;52.102;8.084;2023-02-01T07:01:07;12.48;;;2.80;;
20531;SDS011;10424;52.102;8.084;2023-02-01T07:03:34;14.40;;;2.55;;
20531;SDS011;10424;52.102;8.084;2023-02-01T07:06:03;7.97;;;2.35;;
20531;SDS011;10424;52.102;8.084;2023-02-01T07:08:31;15.90;;;2.92;;
20531;SDS011;10424;52.102;8.084;2023-02-01T07:11:01;16.58;;;3.28;;
20531;SDS011;10424;52.102;8.084;2023-02-01T07:13:28;10.65;;;2.60;;
20531;SDS011;10424;52.102;8.084;2023-02-01T07:15:57;12.27;;;2.57;;
20531;SDS011;10424;52.102;8.084;2023-02-01T07:18:24;12.55;;;2.42;;
20531;SDS011;10424;52.102;8.084;2023-02-01T07:20:51;13.88;;;2.65;;
20531;SDS011;10424;52.102;8.084;2023-02-01T07:23:20;12.67;;;2.90;;
20531;SDS011;10424;52.102;8.084;2023-02-01T07:25:47;19.75;;;3.40;;
20531;SDS011;10424;52.102;8.084;2023-02-01T07:28:15;19.35;;;3.55;;
20531;SDS011;10424;52.102;8.084;2023-02-01T07:30:42;16.30;;;3.20;;
20531;SDS011;10424;52.102;8.084;2023-02-01T07:33:15;17.42;;;3.05;;
20531;SDS011;10424;52.102;8.084;2023-02-01T07:35:42;13.30;;;3.00;;
20531;SDS011;10424;52.102;8.084;2023-02-01T07:38:10;19.80;;;2.97;;
20531;SDS011;10424;52.102;8.084;2023-02-01T07:40:38;20.88;;;3.85;;
20531;SDS011;10424;52.102;8.084;2023-02-01T07:43:06;12.30;;;2.70;;
20531;SDS011;10424;52.102;8.084;2023-02-01T07:45:33;14.88;;;2.95;;
20531;SDS011;10424;52.102;8.084;2023-02-01T07:48:01;12.32;;;3.10;;
20531;SDS011;10424;52.102;8.084;2023-02-01T07:50:28;15.13;;;2.90;;
20531;SDS011;10424;52.102;8.084;2023-02-01T07:52:58;14.10;;;3.22;;
20531;SDS011;10424;52.102;8.084;2023-02-01T07:55:25;10.80;;;2.72;;
20531;SDS011;10424;52.102;8.084;2023-02-01T07:57:55;12.97;;;3.13;;
20531;SDS011;10424;52.102;8.084;2023-02-01T08:00:23;12.95;;;3.03;;
20531;SDS011;10424;52.102;8.084;2023-02-01T08:03:08;21.65;;;3.35;;
20531;SDS011;10424;52.102;8.084;2023-02-01T08:05:35;13.55;;;2.88;;
20531;SDS011;10424;52.102;8.084;2023-02-01T08:08:03;18.65;;;3.15;;
20531;SDS011;10424;52.102;8.084;2023-02-01T08:10:30;12.80;;;3.28;;
20531;SDS011;10424;52.102;8.084;2023-02-01T08:12:59;13.88;;;3.10;;
20531;SDS011;10424;52.102;8.084;2023-02-01T08:15:27;10.50;;;2.78;;
20531;SDS011;10424;52.102;8.084;2023-02-01T08:17:54;7.03;;;2.72;;
20531;SDS011;10424;52.102;8.084;2023-02-01T08:20:23;17.60;;;3.53;;
20531;SDS011;10424;52.102;8.084;2023-02-01T08:22:52;19.92;;;3.65;;
20531;SDS011;10424;52.102;8.084;2023-02-01T08:25:19;17.33;;;4.03;;
20531;SDS011;10424;52.102;8.084;2023-02-01T08:27:47;23.00;;;3.83;;
20531;SDS011;10424;52.102;8.084;2023-02-01T08:30:16;16.45;;;3.47;;
20531;SDS011;10424;52.102;8.084;2023-02-01T08:32:43;14.35;;;3.30;;
20531;SDS011;10424;52.102;8.084;2023-02-01T08:35:10;12.93;;;3.05;;
20531;SDS011;10424;52.102;8.084;2023-02-01T08:37:38;17.90;;;3.25;;
20531;SDS011;10424;52.102;8.084;2023-02-01T08:40:06;13.52;;;3.30;;
20531;SDS011;10424;52.102;8.084;2023-02-01T08:42:33;18.20;;;3.35;;
20531;SDS011;10424;52.102;8.084;2023-02-01T08:45:22;14.90;;;2.85;;
20531;SDS011;10424;52.102;8.084;2023-02-01T08:47:50;19.13;;;3.95;;
20531;SDS011;10424;52.102;8.084;2023-02-01T08:50:17;10.75;;;2.97;;
20531;SDS011;10424;52.102;8.084;2023-02-01T08:52:45;17.52;;;3.65;;
20531;SDS011;10424;52.102;8.084;2023-02-01T08:55:13;13.07;;;3.15;;
20531;SDS011;10424;52.102;8.084;2023-02-01T08:57:40;13.90;;;3.38;;
20531;SDS011;10424;52.102;8.084;2023-02-01T09:00:09;13.43;;;3.28;;
20531;SDS011;10424;52.102;8.084;2023-02-01T09:02:39;24.20;;;3.15;;
20531;SDS011;10424;52.102;8.084;2023-02-01T09:05:06;12.57;;;2.88;;
20531;SDS011;10424;52.102;8.084;2023-02-01T09:07:34;14.85;;;3.25;;
20531;SDS011;10424;52.102;8.084;2023-02-01T09:10:01;12.95;;;2.88;;
20531;SDS011;10424;52.102;8.084;2023-02-01T09:12:29;16.70;;;2.97;;
20531;SDS011;10424;52.102;8.084;2023-02-01T09:14:57;11.30;;;2.90;;
20531;SDS011;10424;52.102;8.084;2023-02-01T09:17:24;12.32;;;2.90;;
20531;SDS011;10424;52.102;8.084;2023-02-01T09:19:53;19.92;;;3.60;;
20531;SDS011;10424;52.102;8.084;2023-02-01T09:22:21;18.10;;;3.10;;
20531;SDS011;10424;52.102;8.084;2023-02-01T09:24:48;14.20;;;3.13;;
20531;SDS011;10424;52.102;8.084;2023-02-01T09:27:15;14.85;;;3.65;;
20531;SDS011;10424;52.102;8.084;2023-02-01T09:29:43;8.77;;;3.38;;
20531;SDS011;10424;52.102;8.084;2023-02-01T09:32:10;15.48;;;3.13;;
20531;SDS011;10424;52.102;8.084;2023-02-01T09:34:37;11.00;;;3.05;;
20531;SDS011;10424;52.102;8.084;2023-02-01T09:37:06;14.43;;;2.97;;
20531;SDS011;10424;52.102;8.084;2023-02-01T09:39:33;13.38;;;2.95;;
20531;SDS011;10424;52.102;8.084;2023-02-01T09:42:04;11.27;;;3.00;;
20531;SDS011;10424;52.102;8.084;2023-02-01T09:47:16;10.82;;;3.45;;
20531;SDS011;10424;52.102;8.084;2023-02-01T09:49:48;14.27;;;2.78;;
20531;SDS011;10424;52.102;8.084;2023-02-01T09:52:20;11.65;;;3.13;;
20531;SDS011;10424;52.102;8.084;2023-02-01T09:54:51;9.82;;;2.90;;
20531;SDS011;10424;52.102;8.084;2023-02-01T09:57:23;12.77;;;3.05;;
20531;SDS011;10424;52.102;8.084;2023-02-01T09:59:52;11.80;;;2.75;;
20531;SDS011;10424;52.102;8.084;2023-02-01T10:02:21;14.43;;;3.03;;
20531;SDS011;10424;52.102;8.084;2023-02-01T10:04:50;11.35;;;2.35;;
20531;SDS011;10424;52.102;8.084;2023-02-01T10:07:21;15.15;;;2.95;;
20531;SDS011;10424;52.102;8.084;2023-02-01T10:10:00;9.98;;;2.38;;
20531;SDS011;10424;52.102;8.084;2023-02-01T10:15:24;13.90;;;2.75;;
20531;SDS011;10424;52.102;8.084;2023-02-01T10:18:01;12.98;;;3.35;;
20531;SDS011;10424;52.102;8.084;2023-02-01T10:20:36;8.98;;;2.45;;
20531;SDS011;10424;52.102;8.084;2023-02-01T10:23:11;11.98;;;3.53;;
20531;SDS011;10424;52.102;8.084;2023-02-01T10:25:44;15.13;;;2.90;;
20531;SDS011;10424;52.102;8.084;2023-02-01T10:28:16;16.10;;;2.97;;
20531;SDS011;10424;52.102;8.084;2023-02-01T10:30:46;10.23;;;3.33;;
20531;SDS011;10424;52.102;8.084;2023-02-01T10:33:16;14.75;;;3.28;;
20531;SDS011;10424;52.102;8.084;2023-02-01T10:35:43;13.80;;;2.92;;
20531;SDS011;10424;52.102;8.084;2023-02-01T10:38:15;11.60;;;2.85;;
20531;SDS011;10424;52.102;8.084;2023-02-01T10:40:44;9.73;;;2.47;;
20531;SDS011;10424;52.102;8.084;2023-02-01T10:43:11;10.77;;;2.95;;
20531;SDS011;10424;52.102;8.084;2023-02-01T10:45:38;11.60;;;3.10;;
20531;SDS011;10424;52.102;8.084;2023-02-01T10:48:07;10.70;;;2.58;;
20531;SDS011;10424;52.102;8.084;2023-02-01T10:50:35;10.93;;;2.72;;
20531;SDS011;10424;52.102;8.084;2023-02-01T10:53:06;10.15;;;2.50;;
20531;SDS011;10424;52.102;8.084;2023-02-01T10:55:39;12.13;;;2.95;;
20531;SDS011;10424;52.102;8.084;2023-02-01T10:58:07;11.27;;;2.88;;
20531;SDS011;10424;52.102;8.084;2023-02-01T11:00:42;13.45;;;3.00;;
20531;SDS011;10424;52.102;8.084;2023-02-01T11:03:19;10.63;;;2.95;;
20531;SDS011;10424;52.102;8.084;2023-02-01T11:05:48;17.85;;;3.42;;
20531;SDS011;10424;52.102;8.084;2023-02-01T11:08:15;8.23;;;2.25;;
20531;SDS011;10424;52.102;8.084;2023-02-01T11:10:45;13.35;;;3.35;;
20531;SDS011;10424;52.102;8.084;2023-02-01T11:13:14;9.32;;;2.33;;
20531;SDS011;10424;52.102;8.084;2023-02-01T11:15:45;13.27;;;3.05;;
20531;SDS011;10424;52.102;8.084;2023-02-01T11:18:15;12.00;;;3.03;;
20531;SDS011;10424;52.102;8.084;2023-02-01T11:20:42;13.32;;;2.75;;
20531;SDS011;10424;52.102;8.084;2023-02-01T11:23:15;10.88;;;2.25;;
20531;SDS011;10424;52.102;8.084;2023-02-01T11:25:53;18.20;;;3.38;;
20531;SDS011;10424;52.102;8.084;2023-02-01T11:28:22;16.55;;;2.50;;
20531;SDS011;10424;52.102;8.084;2023-02-01T11:30:51;8.10;;;2.55;;
20531;SDS011;10424;52.102;8.084;2023-02-01T11:33:20;14.48;;;2.80;;
20531;SDS011;10424;52.102;8.084;2023-02-01T11:35:52;21.73;;;3.35;;
20531;SDS011;10424;52.102;8.084;2023-02-01T11:38:22;11.25;;;3.20;;
20531;SDS011;10424;52.102;8.084;2023-02-01T11:40:53;15.80;;;3.17;;
20531;SDS011;10424;52.102;8.084;2023-02-01T11:43:23;14.13;;;3.40;;
20531;SDS011;10424;52.102;8.084;2023-02-01T11:45:54;9.45;;;3.10;;
20531;SDS011;10424;52.102;8.084;2023-02-01T11:48:22;9.75;;;2.97;;
20531;SDS011;10424;52.102;8.084;2023-02-01T11:50:51;7.78;;;2.38;;
20531;SDS011;10424;52.102;8.084;2023-02-01T11:53:23;9.25;;;2.33;;
20531;SDS011;10424;52.102;8.084;2023-02-01T11:55:58;9.20;;;2.25;;
20531;SDS011;10424;52.102;8.084;2023-02-01T11:58:35;12.32;;;3.08;;
20531;SDS011;10424;52.102;8.084;2023-02-01T12:01:17;13.48;;;2.90;;
20531;SDS011;10424;52.102;8.084;2023-02-01T12:04:00;13.65;;;3.10;;
20531;SDS011;10424;52.102;8.084;2023-02-01T12:06:34;22.58;;;4.55;;
20531;SDS011;10424;52.102;8.084;2023-02-01T12:09:11;10.48;;;2.97;;
20531;SDS011;10424;52.102;8.084;2023-02-01T12:11:46;8.68;;;3.15;;
20531;SDS011;10424;52.102;8.084;2023-02-01T12:14:27;9.68;;;3.20;;
20531;SDS011;10424;52.102;8.084;2023-02-01T12:16:59;6.88;;;2.88;;
20531;SDS011;10424;52.102;8.084;2023-02-01T12:19:32;14.07;;;3.53;;
20531;SDS011;10424;52.102;8.084;2023-02-01T12:22:04;10.23;;;3.80;;
20531;SDS011;10424;52.102;8.084;2023-02-01T12:24:49;10.80;;;3.50;;
20531;SDS011;10424;52.102;8.084;2023-02-01T12:27:33;14.13;;;3.92;;
20531;SDS011;10424;52.102;8.084;2023-02-01T12:30:10;14.35;;;4.35;;
20531;SDS011;10424;52.102;8.084;2023-02-01T12:32:50;17.48;;;4.75;;
20531;SDS011;10424;52.102;8.084;2023-02-01T12:35:36;13.23;;;4.93;;
20531;SDS011;10424;52.102;8.084;2023-02-01T12:38:13;12.27;;;3.65;;
20531;SDS011;10424;52.102;8.084;2023-02-01T12:40:45;12.13;;;4.28;;
20531;SDS011;10424;52.102;8.084;2023-02-01T12:43:17;13.60;;;4.68;;
20531;SDS011;10424;52.102;8.084;2023-02-01T12:45:52;12.10;;;4.75;;
20531;SDS011;10424;52.102;8.084;2023-02-01T12:48:25;13.70;;;4.60;;
20531;SDS011;10424;52.102;8.084;2023-02-01T12:50:54;11.10;;;4.57;;
20531;SDS011;10424;52.102;8.084;2023-02-01T12:53:25;12.05;;;5.18;;
20531;SDS011;10424;52.102;8.084;2023-02-01T12:55:54;10.80;;;3.67;;
20531;SDS011;10424;52.102;8.084;2023-02-01T12:58:25;13.82;;;4.47;;
20531;SDS011;10424;52.102;8.084;2023-02-01T13:00:54;15.30;;;5.10;;
20531;SDS011;10424;52.102;8.084;2023-02-01T13:03:27;12.25;;;4.35;;
20531;SDS011;10424;52.102;8.084;2023-02-01T13:05:58;13.07;;;4.32;;
20531;SDS011;10424;52.102;8.084;2023-02-01T13:08:30;14.75;;;4.00;;
20531;SDS011;10424;52.102;8.084;2023-02-01T13:11:00;18.15;;;4.93;;
20531;SDS011;10424;52.102;8.084;2023-02-01T13:13:32;11.40;;;4.03;;
20531;SDS011;10424;52.102;8.084;2023-02-01T13:16:05;16.20;;;4.50;;
20531;SDS011;10424;52.102;8.084;2023-02-01T13:18:36;14.32;;;4.43;;
20531;SDS011;10424;52.102;8.084;2023-02-01T13:21:05;13.35;;;3.88;;
20531;SDS011;10424;52.102;8.084;2023-02-01T13:23:34;19.58;;;4.65;;
20531;SDS011;10424;52.102;8.084;2023-02-01T13:26:02;17.20;;;4.60;;
20531;SDS011;10424;52.102;8.084;2023-02-01T13:28:31;8.85;;;3.97;;
20531;SDS011;10424;52.102;8.084;2023-02-01T13:33:59;12.38;;;3.58;;
20531;SDS011;10424;52.102;8.084;2023-02-01T13:36:41;15.85;;;4.18;;
20531;SDS011;10424;52.102;8.084;2023-02-01T13:39:34;13.75;;;3.03;;
20531;SDS011;10424;52.102;8.084;2023-02-01T13:42:05;8.18;;;3.20;;
20531;SDS011;10424;52.102;8.084;2023-02-01T13:44:39;12.43;;;3.40;;
20531;SDS011;10424;52.102;8.084;2023-02-01T13:47:11;9.32;;;3.35;;
20531;SDS011;10424;52.102;8.084;2023-02-01T13:49:41;15.50;;;3.40;;
20531;SDS011;10424;52.102;8.084;2023-02-01T13:52:19;14.15;;;3.60;;
20531;SDS011;10424;52.102;8.084;2023-02-01T13:54:49;14.32;;;3.63;;
20531;SDS011;10424;52.102;8.084;2023-02-01T13:57:33;15.07;;;3.92;;
20531;SDS011;10424;52.102;8.084;2023-02-01T14:00:08;12.93;;;3.78;;
20531;SDS011;10424;52.102;8.084;2023-02-01T14:08:11;10.38;;;3.42;;
20531;SDS011;10424;52.102;8.084;2023-02-01T14:10:48;10.40;;;2.80;;
20531;SDS011;10424;52.102;8.084;2023-02-01T14:13:22;10.02;;;2.83;;
20531;SDS011;10424;52.102;8.084;2023-02-01T14:21:21;8.93;;;2.90;;
20531;SDS011;10424;52.102;8.084;2023-02-01T14:23:56;13.90;;;2.90;;
20531;SDS011;10424;52.102;8.084;2023-02-01T14:26:25;13.23;;;3.67;;
20531;SDS011;10424;52.102;8.084;2023-02-01T14:28:55;15.50;;;3.37;;
20531;SDS011;10424;52.102;8.084;2023-02-01T14:31:29;13.52;;;3.72;;
20531;SDS011;10424;52.102;8.084;2023-02-01T14:33:57;9.00;;;3.15;;
20531;SDS011;10424;52.102;8.084;2023-02-01T14:36:25;17.70;;;4.07;;
20531;SDS011;10424;52.102;8.084;2023-02-01T14:38:55;14.00;;;2.77;;
20531;SDS011;10424;52.102;8.084;2023-02-01T14:41:27;12.30;;;3.13;;
20531;SDS011;10424;52.102;8.084;2023-02-01T14:47:25;14.93;;;3.20;;
20531;SDS011;10424;52.102;8.084;2023-02-01T14:49:57;17.10;;;3.30;;
20531;SDS011;10424;52.102;8.084;2023-02-01T14:52:29;8.87;;;2.80;;
20531;SDS011;10424;52.102;8.084;2023-02-01T14:55:00;7.67;;;2.30;;
20531;SDS011;10424;52.102;8.084;2023-02-01T14:57:28;5.45;;;2.03;;
20531;SDS011;10424;52.102;8.084;2023-02-01T14:59:59;5.60;;;1.63;;
20531;SDS011;10424;52.102;8.084;2023-02-01T15:02:32;6.22;;;1.75;;
20531;SDS011;10424;52.102;8.084;2023-02-01T15:05:02;7.13;;;1.70;;
20531;SDS011;10424;52.102;8.084;2023-02-01T15:07:29;8.43;;;2.03;;
20531;SDS011;10424;52.102;8.084;2023-02-01T15:09:57;5.73;;;1.83;;
20531;SDS011;10424;52.102;8.084;2023-02-01T15:12:26;6.87;;;1.87;;
20531;SDS011;10424;52.102;8.084;2023-02-01T15:15:12;10.97;;;2.20;;
20531;SDS011;10424;52.102;8.084;2023-02-01T15:17:40;9.57;;;2.10;;
20531;SDS011;10424;52.102;8.084;2023-02-01T15:20:12;8.23;;;2.10;;
20531;SDS011;10424;52.102;8.084;2023-02-01T15:22:40;5.77;;;2.00;;
20531;SDS011;10424;52.102;8.084;2023-02-01T15:25:17;10.73;;;2.60;;